Time;durP1;ratioP1;P1;durP2;ratioP2;P2;SDS_P1;SDS_P2;PMS_P1;PMS_P2;Temp;Humidity;BMP_temperature;BMP_pressure;BME280_temperature;BME280_humidity;BME280_pressure;Samples;Min_cycle;Max_cycle;Signal;HPM_P1;HPM_P2
2022/08/03 00:01:17;;;;;;;6.50;3.85;;;;;;;;;;5028299;28;20048;-58
2022/08/03 00:03:42;;;;;;;6.00;4.03;;;;;;;;;;5038517;28;20514;-59
2022/08/03 00:06:08;;;;;;;4.82;3.70;;;;;;;;;;5034099;28;20038;-60
2022/08/03 00:08:33;;;;;;;5.90;4.32;;;;;;;;;;5025565;28;20025;-59
2022/08/03 00:10:59;;;;;;;4.85;4.00;;;;;;;;;;5030030;28;20037;-59
2022/08/03 00:13:25;;;;;;;9.63;3.67;;;;;;;;;;5032715;28;20498;-60
2022/08/03 00:15:50;;;;;;;5.65;3.50;;;;;;;;;;5039025;28;20028;-59
2022/08/03 00:18:16;;;;;;;8.45;3.60;;;;;;;;;;5031722;28;20455;-59
2022/08/03 00:20:42;;;;;;;7.45;3.65;;;;;;;;;;5029519;28;20197;-59
2022/08/03 00:23:07;;;;;;;4.68;3.90;;;;;;;;;;5032851;28;20049;-59
2022/08/03 00:25:36;;;;;;;6.45;3.53;;;;;;;;;;5028444;28;20113;-59
2022/08/03 00:28:04;;;;;;;5.15;3.88;;;;;;;;;;5029045;28;20312;-58
2022/08/03 00:30:30;;;;;;;8.80;3.90;;;;;;;;;;5027568;28;20045;-59
2022/08/03 00:32:55;;;;;;;4.30;3.72;;;;;;;;;;5027716;28;20025;-58
2022/08/03 00:35:21;;;;;;;6.75;3.95;;;;;;;;;;5028532;28;20037;-59
2022/08/03 00:37:46;;;;;;;6.03;4.15;;;;;;;;;;5027928;28;20025;-59
2022/08/03 00:40:13;;;;;;;5.63;3.58;;;;;;;;;;5038190;28;20394;-59
2022/08/03 00:42:59;;;;;;;4.05;3.63;;;;;;;;;;5020231;28;20024;-59
2022/08/03 00:45:30;;;;;;;4.20;3.30;;;;;;;;;;5033450;28;20033;-59
2022/08/03 00:47:56;;;;;;;4.95;3.70;;;;;;;;;;5025520;28;20404;-59
2022/08/03 00:50:23;;;;;;;3.83;3.50;;;;;;;;;;5035319;28;20052;-59
2022/08/03 00:52:51;;;;;;;5.30;4.00;;;;;;;;;;5035377;28;20029;-59
2022/08/03 00:55:16;;;;;;;7.88;3.78;;;;;;;;;;5031195;28;20032;-60
2022/08/03 00:57:42;;;;;;;4.40;3.50;;;;;;;;;;5031095;28;20025;-59
2022/08/03 01:00:11;;;;;;;3.83;3.42;;;;;;;;;;5035020;28;20128;-59
2022/08/03 01:02:38;;;;;;;6.53;3.20;;;;;;;;;;5030104;28;20026;-59
2022/08/03 01:05:04;;;;;;;7.32;3.70;;;;;;;;;;5028165;28;20029;-59
2022/08/03 01:07:36;;;;;;;6.03;3.58;;;;;;;;;;5031109;28;20030;-59
2022/08/03 01:10:12;;;;;;;4.30;3.45;;;;;;;;;;5027560;28;20523;-59
2022/08/03 01:12:47;;;;;;;3.83;2.90;;;;;;;;;;5030444;28;20024;-59
2022/08/03 01:15:13;;;;;;;14.48;3.53;;;;;;;;;;5030083;28;20048;-59
2022/08/03 01:17:47;;;;;;;4.30;3.67;;;;;;;;;;5028317;28;20522;-59
2022/08/03 01:20:13;;;;;;;4.78;3.45;;;;;;;;;;5037674;28;20029;-59
2022/08/03 01:22:57;;;;;;;4.38;3.50;;;;;;;;;;5032531;28;20465;-59
2022/08/03 01:25:56;;;;;;;5.25;3.65;;;;;;;;;;5028330;28;20531;-59
2022/08/03 01:28:40;;;;;;;;;;;;;;;;;;5027938;28;20037;-59
2022/08/03 01:31:09;;;;;;;6.95;3.63;;;;;;;;;;5031951;28;20026;-59
2022/08/03 01:33:49;;;;;;;3.50;3.13;;;;;;;;;;5028118;28;20076;-59
2022/08/03 01:36:21;;;;;;;4.88;3.28;;;;;;;;;;5029434;28;20454;-60
2022/08/03 01:38:54;;;;;;;5.53;3.65;;;;;;;;;;5028273;28;20542;-59
2022/08/03 01:41:23;;;;;;;5.63;3.30;;;;;;;;;;5027180;28;20091;-59
2022/08/03 01:43:52;;;;;;;6.55;3.35;;;;;;;;;;5030554;28;20025;-59
2022/08/03 01:46:19;;;;;;;4.40;3.33;;;;;;;;;;5027045;28;20071;-59
2022/08/03 01:48:46;;;;;;;8.07;3.45;;;;;;;;;;5033339;28;20036;-59
2022/08/03 01:51:15;;;;;;;4.43;3.17;;;;;;;;;;5027544;28;20038;-59
2022/08/03 01:53:41;;;;;;;4.53;3.53;;;;;;;;;;5028904;28;20475;-59
2022/08/03 01:56:07;;;;;;;7.05;3.80;;;;;;;;;;5031236;28;20785;-59
2022/08/03 01:58:34;;;;;;;5.20;3.25;;;;;;;;;;5025904;28;20033;-59
2022/08/03 02:01:02;;;;;;;6.82;3.58;;;;;;;;;;5025494;28;20036;-59
2022/08/03 02:03:28;;;;;;;4.90;3.90;;;;;;;;;;5026154;28;20056;-59
2022/08/03 02:05:55;;;;;;;6.45;3.92;;;;;;;;;;5029578;28;20034;-59
2022/08/03 02:08:24;;;;;;;4.57;3.65;;;;;;;;;;5027696;28;20115;-59
2022/08/03 02:10:51;;;;;;;4.65;3.40;;;;;;;;;;5033090;28;20029;-59
2022/08/03 02:13:19;;;;;;;4.88;3.90;;;;;;;;;;5030620;28;20033;-59
2022/08/03 02:15:46;;;;;;;4.20;3.50;;;;;;;;;;5029852;28;20095;-59
2022/08/03 02:18:13;;;;;;;5.28;4.20;;;;;;;;;;5029886;28;20136;-59
2022/08/03 02:20:43;;;;;;;7.15;4.20;;;;;;;;;;5032203;28;20022;-59
2022/08/03 02:23:09;;;;;;;7.00;3.60;;;;;;;;;;5028491;28;20091;-59
2022/08/03 02:25:41;;;;;;;4.28;3.45;;;;;;;;;;5033300;28;20479;-59
2022/08/03 02:28:10;;;;;;;7.68;3.65;;;;;;;;;;5025424;28;20029;-59
2022/08/03 02:30:39;;;;;;;5.38;4.05;;;;;;;;;;5027269;28;20039;-59
2022/08/03 02:33:10;;;;;;;4.93;3.65;;;;;;;;;;5025818;28;20044;-59
2022/08/03 02:35:36;;;;;;;4.65;3.75;;;;;;;;;;5026848;28;20171;-59
2022/08/03 02:38:06;;;;;;;4.63;3.47;;;;;;;;;;5022793;28;20554;-59
2022/08/03 02:40:32;;;;;;;6.88;4.00;;;;;;;;;;5025519;28;20033;-59
2022/08/03 02:43:01;;;;;;;4.25;3.30;;;;;;;;;;5030985;28;20052;-59
2022/08/03 02:45:28;;;;;;;3.88;3.10;;;;;;;;;;5031622;28;20025;-59
2022/08/03 02:47:58;;;;;;;5.53;3.38;;;;;;;;;;5024540;28;20500;-59
2022/08/03 02:50:26;;;;;;;4.68;2.97;;;;;;;;;;5026894;28;20032;-59
2022/08/03 02:52:53;;;;;;;6.65;3.47;;;;;;;;;;5027707;28;20479;-59
2022/08/03 02:55:21;;;;;;;7.55;3.15;;;;;;;;;;5034138;28;20041;-59
2022/08/03 02:57:48;;;;;;;4.03;3.42;;;;;;;;;;5025937;28;20516;-59
2022/08/03 03:00:14;;;;;;;4.70;3.10;;;;;;;;;;5027719;28;20034;-59
2022/08/03 03:02:41;;;;;;;4.20;3.50;;;;;;;;;;5030010;28;20060;-59
2022/08/03 03:05:08;;;;;;;5.43;3.20;;;;;;;;;;5027902;28;20033;-59
2022/08/03 03:07:35;;;;;;;5.25;2.97;;;;;;;;;;5033335;28;20029;-59
2022/08/03 03:10:03;;;;;;;7.57;3.58;;;;;;;;;;5026716;28;20502;-59
2022/08/03 03:12:29;;;;;;;4.38;3.55;;;;;;;;;;5027585;28;20518;-59
2022/08/03 03:14:55;;;;;;;4.38;3.50;;;;;;;;;;5029405;28;20093;-59
2022/08/03 03:17:21;;;;;;;4.00;3.20;;;;;;;;;;5031212;28;20116;-59
2022/08/03 03:19:49;;;;;;;5.38;3.58;;;;;;;;;;5031615;28;20025;-59
2022/08/03 03:22:16;;;;;;;6.43;3.43;;;;;;;;;;5030308;28;20036;-59
2022/08/03 03:24:43;;;;;;;6.78;3.63;;;;;;;;;;5034137;28;20120;-59
2022/08/03 03:27:08;;;;;;;4.15;3.53;;;;;;;;;;5030128;28;20063;-59
2022/08/03 03:29:34;;;;;;;6.32;3.30;;;;;;;;;;5034054;28;20029;-59
2022/08/03 03:32:00;;;;;;;6.85;3.42;;;;;;;;;;5030418;28;20047;-59
2022/08/03 03:34:28;;;;;;;4.35;2.97;;;;;;;;;;5033232;28;20025;-59
2022/08/03 03:36:53;;;;;;;5.50;3.53;;;;;;;;;;5031893;28;20024;-59
2022/08/03 03:39:19;;;;;;;5.57;3.55;;;;;;;;;;5030995;28;20449;-59
2022/08/03 03:41:44;;;;;;;6.60;3.17;;;;;;;;;;5031054;28;20029;-59
2022/08/03 03:44:10;;;;;;;4.63;3.10;;;;;;;;;;5031759;28;20521;-59
2022/08/03 03:46:37;;;;;;;4.63;2.97;;;;;;;;;;5030798;28;20029;-59
2022/08/03 03:49:05;;;;;;;4.82;3.35;;;;;;;;;;5029976;28;20037;-58
2022/08/03 03:51:30;;;;;;;4.88;3.20;;;;;;;;;;5029993;28;20082;-58
2022/08/03 03:53:57;;;;;;;4.80;3.58;;;;;;;;;;5032423;28;20112;-59
2022/08/03 03:56:23;;;;;;;6.65;3.58;;;;;;;;;;5029886;28;20029;-58
2022/08/03 03:58:48;;;;;;;3.80;3.28;;;;;;;;;;5029421;28;20107;-59
2022/08/03 04:01:14;;;;;;;5.03;3.38;;;;;;;;;;5027609;28;20045;-59
2022/08/03 04:03:40;;;;;;;5.32;3.33;;;;;;;;;;5030730;28;20067;-59
2022/08/03 04:11:39;;;;;;;4.47;3.10;;;;;;;;;;5033133;28;20167;-59
2022/08/03 04:14:34;;;;;;;5.13;3.60;;;;;;;;;;5030879;28;20029;-58
2022/08/03 04:17:06;;;;;;;6.15;3.10;;;;;;;;;;5022090;28;20037;-58
2022/08/03 04:19:39;;;;;;;4.28;3.50;;;;;;;;;;5031518;28;20032;-58
2022/08/03 04:22:09;;;;;;;4.38;3.03;;;;;;;;;;5028885;28;20151;-59
2022/08/03 04:24:42;;;;;;;5.63;3.28;;;;;;;;;;5032409;28;20844;-58
2022/08/03 04:27:10;;;;;;;4.78;3.30;;;;;;;;;;5033431;28;20103;-59
2022/08/03 04:29:40;;;;;;;7.25;3.72;;;;;;;;;;5027607;28;20123;-59
2022/08/03 04:32:07;;;;;;;4.90;3.33;;;;;;;;;;5027320;28;20025;-59
2022/08/03 04:34:34;;;;;;;4.20;3.10;;;;;;;;;;5031910;28;20033;-59
2022/08/03 04:37:02;;;;;;;4.55;3.10;;;;;;;;;;5030014;28;20096;-59
2022/08/03 04:39:30;;;;;;;7.90;3.67;;;;;;;;;;5033692;28;20537;-59
2022/08/03 04:42:00;;;;;;;5.88;3.17;;;;;;;;;;5027611;28;20037;-58
2022/08/03 04:44:27;;;;;;;6.93;2.83;;;;;;;;;;5028179;28;20391;-59
2022/08/03 04:46:53;;;;;;;4.35;3.03;;;;;;;;;;5028523;28;20060;-59
2022/08/03 04:49:19;;;;;;;4.75;3.30;;;;;;;;;;5028968;28;20087;-59
2022/08/03 04:51:45;;;;;;;3.67;3.28;;;;;;;;;;5025617;28;20025;-58
2022/08/03 04:54:12;;;;;;;4.32;3.20;;;;;;;;;;5029928;28;20487;-58
2022/08/03 04:56:42;;;;;;;3.88;2.80;;;;;;;;;;5029610;28;20026;-59
2022/08/03 04:59:10;;;;;;;;;;;;;;;;;;5030881;28;20021;-59
2022/08/03 05:01:36;;;;;;;5.03;3.67;;;;;;;;;;5028817;28;19932;-59
2022/08/03 05:04:02;;;;;;;5.85;3.40;;;;;;;;;;5032655;28;20029;-59
2022/08/03 05:06:28;;;;;;;8.88;3.38;;;;;;;;;;5028180;28;20290;-59
2022/08/03 05:08:53;;;;;;;4.38;3.33;;;;;;;;;;5033634;28;20029;-59
2022/08/03 05:11:19;;;;;;;5.40;3.50;;;;;;;;;;5029475;28;20026;-59
2022/08/03 05:13:45;;;;;;;5.18;3.42;;;;;;;;;;5031981;28;20032;-59
2022/08/03 05:16:12;;;;;;;7.30;3.20;;;;;;;;;;5033492;28;20046;-59
2022/08/03 05:18:38;;;;;;;5.05;3.25;;;;;;;;;;5027414;28;20021;-59
2022/08/03 05:21:03;;;;;;;6.15;3.75;;;;;;;;;;5026947;28;20395;-59
2022/08/03 05:23:29;;;;;;;10.10;4.05;;;;;;;;;;5029355;28;20040;-59
2022/08/03 05:25:55;;;;;;;7.90;3.53;;;;;;;;;;5030082;28;20029;-59
2022/08/03 05:28:20;;;;;;;4.75;3.50;;;;;;;;;;5029738;28;20048;-59
2022/08/03 05:30:46;;;;;;;3.88;3.38;;;;;;;;;;5027559;28;20545;-59
2022/08/03 05:33:11;;;;;;;6.50;3.88;;;;;;;;;;5027075;28;20034;-59
2022/08/03 05:35:38;;;;;;;6.68;3.40;;;;;;;;;;5027535;28;20029;-56
2022/08/03 05:38:04;;;;;;;8.27;3.47;;;;;;;;;;5036637;28;20158;-60
2022/08/03 05:40:30;;;;;;;7.22;3.13;;;;;;;;;;5027323;28;20040;-59
2022/08/03 05:42:56;;;;;;;5.00;3.75;;;;;;;;;;5023907;28;20439;-60
2022/08/03 05:45:22;;;;;;;6.93;3.90;;;;;;;;;;5028511;28;20030;-60
2022/08/03 05:47:49;;;;;;;7.60;4.25;;;;;;;;;;5024975;28;20029;-59
2022/08/03 05:50:14;;;;;;;8.20;4.50;;;;;;;;;;5027449;28;20376;-60
2022/08/03 05:52:41;;;;;;;6.90;4.15;;;;;;;;;;5023420;28;20064;-59
2022/08/03 05:55:08;;;;;;;5.57;4.35;;;;;;;;;;5029560;28;20105;-60
2022/08/03 05:57:34;;;;;;;8.32;4.40;;;;;;;;;;5032508;28;20022;-60
2022/08/03 06:00:00;;;;;;;8.13;4.45;;;;;;;;;;5026147;28;20036;-59
2022/08/03 06:02:26;;;;;;;6.07;4.63;;;;;;;;;;5022764;28;20098;-60
2022/08/03 06:04:51;;;;;;;6.30;4.60;;;;;;;;;;5025778;28;20044;-60
2022/08/03 06:07:17;;;;;;;5.95;4.80;;;;;;;;;;5028291;28;20037;-60
2022/08/03 06:09:42;;;;;;;7.13;4.88;;;;;;;;;;5027819;28;20066;-59
2022/08/03 06:12:08;;;;;;;8.27;4.70;;;;;;;;;;5022795;28;20048;-59
2022/08/03 06:14:33;;;;;;;7.03;5.28;;;;;;;;;;5025745;28;20302;-60
2022/08/03 06:16:58;;;;;;;7.60;5.38;;;;;;;;;;5026639;28;20025;-59
2022/08/03 06:19:26;;;;;;;8.25;5.38;;;;;;;;;;5026237;28;20502;-60
2022/08/03 06:21:51;;;;;;;8.93;5.55;;;;;;;;;;5026028;28;20446;-59
2022/08/03 06:24:17;;;;;;;9.95;5.80;;;;;;;;;;5023142;28;20049;-59
2022/08/03 06:26:42;;;;;;;8.98;6.38;;;;;;;;;;5028503;28;20451;-60
2022/08/03 06:29:07;;;;;;;6.85;5.80;;;;;;;;;;5026082;28;20037;-60
2022/08/03 06:31:33;;;;;;;8.85;6.50;;;;;;;;;;5021633;28;20056;-58
2022/08/03 06:33:59;;;;;;;15.80;8.35;;;;;;;;;;5025880;28;20021;-58
2022/08/03 06:36:30;;;;;;;10.70;6.53;;;;;;;;;;5026332;28;20060;-59
2022/08/03 06:38:56;;;;;;;9.23;6.80;;;;;;;;;;5022835;28;20052;-59
2022/08/03 06:41:21;;;;;;;14.85;8.52;;;;;;;;;;5015921;28;20037;-59
2022/08/03 06:43:47;;;;;;;10.30;6.55;;;;;;;;;;5022333;28;20026;-58
2022/08/03 06:46:12;;;;;;;8.10;6.00;;;;;;;;;;5021763;28;20233;-59
2022/08/03 06:48:37;;;;;;;7.30;5.75;;;;;;;;;;5023415;28;20467;-58
2022/08/03 06:51:03;;;;;;;12.55;7.70;;;;;;;;;;5023598;28;20022;-58
2022/08/03 06:53:28;;;;;;;10.32;6.95;;;;;;;;;;5029349;28;21069;-58
2022/08/03 06:55:54;;;;;;;8.70;5.80;;;;;;;;;;5023233;28;20030;-59
2022/08/03 06:58:19;;;;;;;9.88;5.75;;;;;;;;;;5021386;28;20026;-58
2022/08/03 07:00:44;;;;;;;8.27;5.60;;;;;;;;;;5024421;28;20033;-59
2022/08/03 07:03:10;;;;;;;8.30;4.97;;;;;;;;;;5023000;28;20483;-59
2022/08/03 07:05:35;;;;;;;6.65;5.10;;;;;;;;;;5023667;28;20125;-59
2022/08/03 07:08:02;;;;;;;9.38;5.35;;;;;;;;;;5025886;28;20056;-58
2022/08/03 07:10:27;;;;;;;8.55;5.20;;;;;;;;;;5024701;28;20399;-59
2022/08/03 07:12:53;;;;;;;8.07;5.40;;;;;;;;;;5025748;28;20078;-59
2022/08/03 07:15:18;;;;;;;6.20;5.07;;;;;;;;;;5025519;28;20049;-59
2022/08/03 07:17:44;;;;;;;7.93;5.32;;;;;;;;;;5026126;28;20060;-59
2022/08/03 07:20:10;;;;;;;8.55;5.00;;;;;;;;;;5025106;28;20057;-59
2022/08/03 07:22:35;;;;;;;9.02;5.32;;;;;;;;;;5023663;28;20140;-59
2022/08/03 07:25:01;;;;;;;7.22;6.05;;;;;;;;;;5022351;28;20518;-59
2022/08/03 07:27:28;;;;;;;9.93;5.88;;;;;;;;;;5025100;28;20111;-59
2022/08/03 07:29:54;;;;;;;6.97;5.22;;;;;;;;;;5024970;28;20034;-59
2022/08/03 07:32:19;;;;;;;9.45;5.55;;;;;;;;;;5024230;28;20048;-59
2022/08/03 07:34:44;;;;;;;8.18;5.50;;;;;;;;;;5026640;28;20487;-59
2022/08/03 07:37:10;;;;;;;11.45;8.10;;;;;;;;;;5022406;28;20045;-59
2022/08/03 07:39:35;;;;;;;11.77;7.20;;;;;;;;;;5024285;28;20025;-61
2022/08/03 07:42:01;;;;;;;8.68;5.93;;;;;;;;;;5027635;28;20589;-59
2022/08/03 07:44:26;;;;;;;12.60;6.18;;;;;;;;;;5026934;28;20396;-59
2022/08/03 07:46:52;;;;;;;9.02;5.72;;;;;;;;;;5021305;28;20034;-59
2022/08/03 07:49:17;;;;;;;7.72;5.55;;;;;;;;;;5024255;28;20040;-59
2022/08/03 07:51:42;;;;;;;8.05;5.88;;;;;;;;;;5023657;28;20025;-59
2022/08/03 07:54:09;;;;;;;7.63;5.47;;;;;;;;;;5021653;28;20064;-59
2022/08/03 07:56:35;;;;;;;10.35;6.10;;;;;;;;;;5022545;28;20044;-59
2022/08/03 07:59:01;;;;;;;12.52;7.72;;;;;;;;;;5025442;28;20022;-59
2022/08/03 08:01:27;;;;;;;8.38;5.82;;;;;;;;;;5025637;28;20040;-59
2022/08/03 08:03:53;;;;;;;9.10;5.70;;;;;;;;;;5027272;28;20055;-59
2022/08/03 08:06:20;;;;;;;10.77;5.90;;;;;;;;;;5030353;28;20079;-59
2022/08/03 08:08:46;;;;;;;7.15;5.43;;;;;;;;;;5030798;28;20544;-59
2022/08/03 08:11:11;;;;;;;9.00;5.43;;;;;;;;;;5027670;28;20144;-59
2022/08/03 08:13:37;;;;;;;8.02;4.97;;;;;;;;;;5030633;28;20537;-59
2022/08/03 08:16:03;;;;;;;7.43;5.22;;;;;;;;;;5027161;28;20045;-59
2022/08/03 08:18:29;;;;;;;7.97;4.68;;;;;;;;;;5026593;28;20076;-59
2022/08/03 08:20:54;;;;;;;7.38;4.53;;;;;;;;;;5030570;28;20029;-59
2022/08/03 08:23:23;;;;;;;5.75;4.47;;;;;;;;;;5028239;28;20075;-59
2022/08/03 08:25:50;;;;;;;5.75;4.55;;;;;;;;;;5028562;28;20034;-59
2022/08/03 08:28:20;;;;;;;6.32;4.38;;;;;;;;;;5024908;28;20036;-59
2022/08/03 08:30:47;;;;;;;10.60;4.90;;;;;;;;;;5028949;28;20033;-59
2022/08/03 08:33:12;;;;;;;6.95;4.50;;;;;;;;;;5028214;28;20071;-59
2022/08/03 08:35:38;;;;;;;6.93;4.07;;;;;;;;;;5029477;28;20037;-59
2022/08/03 08:38:03;;;;;;;5.15;4.03;;;;;;;;;;5023849;28;20033;-59
2022/08/03 08:40:29;;;;;;;5.28;4.22;;;;;;;;;;5028612;28;20459;-61
2022/08/03 08:42:54;;;;;;;8.30;5.07;;;;;;;;;;5029255;28;20105;-59
2022/08/03 08:45:20;;;;;;;4.80;4.00;;;;;;;;;;5025465;28;20503;-59
2022/08/03 08:47:47;;;;;;;11.75;4.53;;;;;;;;;;5025917;28;20029;-59
2022/08/03 08:50:16;;;;;;;8.88;4.70;;;;;;;;;;5025571;28;20033;-58
2022/08/03 08:52:44;;;;;;;6.45;4.65;;;;;;;;;;5030735;28;20025;-59
2022/08/03 08:55:12;;;;;;;;;;;;;;;;;;5030701;28;20479;-59
2022/08/03 08:57:45;;;;;;;8.80;4.60;;;;;;;;;;5030090;28;20398;-59
2022/08/03 09:00:13;;;;;;;8.68;4.40;;;;;;;;;;5025993;28;20032;-59
2022/08/03 09:02:41;;;;;;;5.50;4.60;;;;;;;;;;5026519;28;20104;-59
2022/08/03 09:05:12;;;;;;;8.35;4.88;;;;;;;;;;5031304;28;20579;-60
2022/08/03 09:07:39;;;;;;;7.20;4.85;;;;;;;;;;5029716;28;20033;-59
2022/08/03 09:10:06;;;;;;;5.38;4.68;;;;;;;;;;5025784;28;20402;-59
2022/08/03 09:12:37;;;;;;;5.43;4.70;;;;;;;;;;5029628;28;20056;-59
2022/08/03 09:15:22;;;;;;;5.53;4.85;;;;;;;;;;5028242;28;20029;-59
2022/08/03 09:17:50;;;;;;;6.85;4.30;;;;;;;;;;5025551;28;20057;-59
2022/08/03 09:20:15;;;;;;;6.90;4.40;;;;;;;;;;5027811;28;20029;-59
2022/08/03 09:23:00;;;;;;;5.68;4.00;;;;;;;;;;5026790;28;20021;-59
2022/08/03 09:25:40;;;;;;;7.78;4.80;;;;;;;;;;5025465;28;20511;-59
2022/08/03 09:28:13;;;;;;;5.68;4.20;;;;;;;;;;5023628;28;20029;-59
2022/08/03 09:30:57;;;;;;;6.30;3.85;;;;;;;;;;5025610;28;20025;-59
2022/08/03 09:33:23;;;;;;;6.25;4.30;;;;;;;;;;5025603;28;20025;-59
2022/08/03 09:35:48;;;;;;;5.07;3.80;;;;;;;;;;5031951;28;20506;-59
2022/08/03 09:38:15;;;;;;;5.00;4.30;;;;;;;;;;5033532;28;20073;-59
2022/08/03 09:40:42;;;;;;;6.15;4.50;;;;;;;;;;5027731;28;20033;-59
2022/08/03 09:43:09;;;;;;;5.32;4.30;;;;;;;;;;5024603;28;20108;-60
2022/08/03 09:45:36;;;;;;;5.57;4.22;;;;;;;;;;5023867;28;20056;-60
2022/08/03 09:48:33;;;;;;;5.50;4.53;;;;;;;;;;5026256;28;20022;-60
2022/08/03 09:51:02;;;;;;;5.13;4.00;;;;;;;;;;5015357;28;20705;-59
2022/08/03 09:53:28;;;;;;;9.35;4.20;;;;;;;;;;5027721;28;20516;-60
2022/08/03 09:55:59;;;;;;;4.72;3.97;;;;;;;;;;5032404;28;20033;-60
2022/08/03 09:58:27;;;;;;;6.72;3.90;;;;;;;;;;5028583;28;20419;-60
2022/08/03 10:01:03;;;;;;;7.07;4.32;;;;;;;;;;5024495;28;20114;-60
2022/08/03 10:03:30;;;;;;;8.80;4.32;;;;;;;;;;5028500;28;20407;-60
2022/08/03 10:05:57;;;;;;;5.85;4.15;;;;;;;;;;5031596;28;20018;-60
2022/08/03 10:08:23;;;;;;;5.68;3.70;;;;;;;;;;5026501;28;20450;-60
2022/08/03 10:10:52;;;;;;;6.28;4.10;;;;;;;;;;5027054;28;20029;-60
2022/08/03 10:13:18;;;;;;;5.47;3.60;;;;;;;;;;5026534;28;20483;-60
2022/08/03 10:15:45;;;;;;;5.15;3.83;;;;;;;;;;5027251;28;20035;-60
2022/08/03 10:18:11;;;;;;;4.18;3.78;;;;;;;;;;5025526;28;20074;-60
2022/08/03 10:20:42;;;;;;;4.28;3.78;;;;;;;;;;5024400;28;20025;-60
2022/08/03 10:23:09;;;;;;;8.88;4.90;;;;;;;;;;5026116;28;20091;-60
2022/08/03 10:25:37;;;;;;;5.75;3.58;;;;;;;;;;5019425;28;20029;-60
2022/08/03 10:28:04;;;;;;;8.75;3.67;;;;;;;;;;5026643;28;20116;-60
2022/08/03 10:30:31;;;;;;;3.95;3.50;;;;;;;;;;5023699;28;20033;-57
2022/08/03 10:33:22;;;;;;;3.72;3.20;;;;;;;;;;5024824;28;20029;-56
2022/08/03 10:35:53;;;;;;;3.63;2.90;;;;;;;;;;5024186;28;20040;-55
2022/08/03 10:38:24;;;;;;;3.65;3.00;;;;;;;;;;5028551;28;20494;-55
2022/08/03 10:40:54;;;;;;;5.25;3.22;;;;;;;;;;5024364;28;20025;-55
2022/08/03 10:43:20;;;;;;;3.67;2.88;;;;;;;;;;5025608;28;20033;-57
2022/08/03 10:45:45;;;;;;;4.55;3.10;;;;;;;;;;5023394;28;20092;-57
2022/08/03 10:48:12;;;;;;;3.95;3.20;;;;;;;;;;5028006;28;20033;-57
2022/08/03 10:50:37;;;;;;;3.25;2.80;;;;;;;;;;5018462;28;20025;-61
2022/08/03 10:53:07;;;;;;;4.53;2.78;;;;;;;;;;5026126;28;20036;-61
2022/08/03 10:58:37;;;;;;;3.53;2.92;;;;;;;;;;5025270;28;20064;-60
2022/08/03 11:01:08;;;;;;;5.90;3.20;;;;;;;;;;5022400;28;20029;-61
2022/08/03 11:03:53;;;;;;;4.25;2.90;;;;;;;;;;5024773;28;20041;-61
2022/08/03 11:06:25;;;;;;;3.05;2.75;;;;;;;;;;5024520;28;20053;-60
2022/08/03 11:09:08;;;;;;;3.03;2.72;;;;;;;;;;5021558;28;20448;-61
2022/08/03 11:11:35;;;;;;;4.78;3.03;;;;;;;;;;5022614;28;20029;-61
2022/08/03 11:14:08;;;;;;;2.78;2.58;;;;;;;;;;5026877;28;20026;-61
2022/08/03 11:16:44;;;;;;;3.42;3.03;;;;;;;;;;5025787;28;20041;-61
2022/08/03 11:19:12;;;;;;;3.67;2.47;;;;;;;;;;5024719;28;20030;-61
2022/08/03 11:21:49;;;;;;;;;;;;;;;;;;;;;
2022/08/03 11:24:38;;;;;;;3.50;2.97;;;;;;;;;;5025558;28;20045;-61
2022/08/03 11:27:26;;;;;;;3.80;2.63;;;;;;;;;;5022154;28;20045;-61
2022/08/03 11:30:03;;;;;;;;;;;;;;;;;;5018034;28;20104;-61
2022/08/03 11:32:45;;;;;;;3.42;2.63;;;;;;;;;;5020881;28;19912;-61
2022/08/03 11:35:24;;;;;;;3.45;2.53;;;;;;;;;;5020289;28;20033;-61
2022/08/03 11:37:59;;;;;;;4.05;2.47;;;;;;;;;;5024166;28;20030;-61
2022/08/03 11:40:53;;;;;;;3.20;2.58;;;;;;;;;;5026539;28;20451;-61
2022/08/03 11:43:21;;;;;;;5.72;2.58;;;;;;;;;;5028638;28;20029;-61
2022/08/03 11:46:20;;;;;;;4.60;2.40;;;;;;;;;;5028805;28;20024;-61
2022/08/03 11:48:48;;;;;;;3.10;2.80;;;;;;;;;;5028322;28;20078;-61
2022/08/03 11:51:26;;;;;;;;;;;;;;;;;;5027268;28;20461;-61
2022/08/03 11:53:59;;;;;;;3.67;2.35;;;;;;;;;;5021853;28;20466;-61
2022/08/03 11:56:26;;;;;;;3.10;2.58;;;;;;;;;;5022400;28;20041;-61
2022/08/03 11:58:56;;;;;;;4.20;2.53;;;;;;;;;;5029036;28;20491;-61
2022/08/03 12:01:24;;;;;;;3.95;2.47;;;;;;;;;;5028442;28;20121;-61
2022/08/03 12:03:50;;;;;;;5.13;2.50;;;;;;;;;;5029026;28;20045;-61
2022/08/03 12:06:17;;;;;;;4.07;2.33;;;;;;;;;;5027625;28;20037;-61
2022/08/03 12:08:43;;;;;;;3.53;2.30;;;;;;;;;;5026044;28;20084;-61
2022/08/03 12:11:12;;;;;;;4.07;2.40;;;;;;;;;;5028172;28;20406;-61
2022/08/03 12:13:41;;;;;;;3.83;2.55;;;;;;;;;;5023694;28;20020;-61
2022/08/03 12:16:07;;;;;;;5.35;2.50;;;;;;;;;;5028012;28;20033;-61
2022/08/03 12:18:33;;;;;;;3.13;2.47;;;;;;;;;;5024707;28;20083;-61
2022/08/03 12:21:07;;;;;;;3.45;2.28;;;;;;;;;;5028840;28;20437;-61
2022/08/03 12:23:33;;;;;;;3.60;2.40;;;;;;;;;;5024825;28;20364;-61
2022/08/03 12:26:08;;;;;;;3.17;2.20;;;;;;;;;;5029122;28;20446;-61
2022/08/03 12:28:35;;;;;;;3.13;2.15;;;;;;;;;;5026957;28;20278;-61
2022/08/03 12:31:05;;;;;;;3.03;2.22;;;;;;;;;;5025629;28;20171;-61
2022/08/03 12:33:30;;;;;;;6.43;2.38;;;;;;;;;;5025388;28;20044;-62
2022/08/03 12:36:04;;;;;;;3.90;2.15;;;;;;;;;;5033572;28;20483;-62
2022/08/03 12:38:31;;;;;;;3.75;2.47;;;;;;;;;;5025722;28;20040;-62
2022/08/03 12:40:58;;;;;;;2.58;2.22;;;;;;;;;;5026177;28;20025;-62
2022/08/03 12:43:24;;;;;;;3.90;2.43;;;;;;;;;;5026181;28;20431;-62
2022/08/03 12:45:50;;;;;;;2.65;2.33;;;;;;;;;;5026133;28;20766;-61
2022/08/03 12:48:15;;;;;;;6.57;2.65;;;;;;;;;;5024892;28;20033;-62
2022/08/03 12:50:41;;;;;;;2.80;2.47;;;;;;;;;;5025675;28;20025;-62
2022/08/03 12:53:08;;;;;;;3.10;2.05;;;;;;;;;;5027362;28;20056;-62
2022/08/03 12:55:35;;;;;;;2.95;2.35;;;;;;;;;;5021276;28;20022;-62
2022/08/03 12:58:06;;;;;;;3.47;2.40;;;;;;;;;;5026185;28;20280;-62
2022/08/03 13:00:32;;;;;;;2.95;2.45;;;;;;;;;;5029165;28;20030;-62
2022/08/03 13:03:06;;;;;;;2.03;1.92;;;;;;;;;;5026126;28;20029;-61
2022/08/03 13:05:41;;;;;;;2.97;2.10;;;;;;;;;;5026614;28;20052;-61
2022/08/03 13:08:20;;;;;;;3.25;2.35;;;;;;;;;;5026749;28;20033;-62
2022/08/03 13:10:46;;;;;;;3.75;2.20;;;;;;;;;;5025263;28;20021;-62
2022/08/03 13:13:11;;;;;;;2.83;2.33;;;;;;;;;;5022579;28;20056;-61
2022/08/03 13:15:37;;;;;;;4.22;2.38;;;;;;;;;;5025275;28;20063;-62
2022/08/03 13:18:02;;;;;;;2.63;2.40;;;;;;;;;;5025371;28;20036;-62
2022/08/03 13:20:28;;;;;;;8.00;2.30;;;;;;;;;;5025935;28;20048;-62
2022/08/03 13:22:55;;;;;;;3.03;2.47;;;;;;;;;;5027334;28;20043;-62
2022/08/03 13:25:21;;;;;;;2.72;1.90;;;;;;;;;;5027823;28;20472;-62
2022/08/03 13:27:47;;;;;;;2.25;1.95;;;;;;;;;;5025435;28;20360;-62
2022/08/03 13:30:13;;;;;;;3.65;2.35;;;;;;;;;;5027031;28;20036;-59
2022/08/03 13:32:38;;;;;;;3.50;2.30;;;;;;;;;;5025659;28;20200;-62
2022/08/03 13:35:05;;;;;;;3.42;2.17;;;;;;;;;;5024405;28;20026;-61
2022/08/03 13:37:31;;;;;;;3.67;2.20;;;;;;;;;;5032868;28;20051;-62
2022/08/03 13:39:57;;;;;;;2.30;2.10;;;;;;;;;;5026294;28;20491;-61
2022/08/03 13:42:23;;;;;;;4.80;2.10;;;;;;;;;;5026439;28;20037;-61
2022/08/03 13:44:48;;;;;;;3.65;2.20;;;;;;;;;;5022891;28;20034;-61
2022/08/03 13:47:14;;;;;;;5.22;2.05;;;;;;;;;;5025047;28;20033;-61
2022/08/03 13:49:39;;;;;;;5.72;2.28;;;;;;;;;;5024836;28;20025;-61
2022/08/03 13:52:04;;;;;;;2.50;2.17;;;;;;;;;;5028256;28;20107;-63
2022/08/03 13:54:31;;;;;;;3.42;2.03;;;;;;;;;;5026008;28;20036;-61
2022/08/03 13:56:56;;;;;;;3.28;2.13;;;;;;;;;;5025370;28;20033;-62
2022/08/03 13:59:23;;;;;;;2.30;1.90;;;;;;;;;;5024268;28;20028;-64
2022/08/03 14:01:51;;;;;;;3.67;1.80;;;;;;;;;;5026264;28;20021;-61
2022/08/03 14:04:17;;;;;;;3.28;2.22;;;;;;;;;;5025481;28;20495;-61
2022/08/03 14:06:45;;;;;;;3.15;2.25;;;;;;;;;;5025303;28;20056;-62
2022/08/03 14:09:13;;;;;;;4.38;2.55;;;;;;;;;;5024815;28;20438;-61
2022/08/03 14:11:40;;;;;;;4.72;2.10;;;;;;;;;;5025181;28;20419;-61
2022/08/03 14:14:05;;;;;;;4.00;2.17;;;;;;;;;;5024617;28;20748;-64
2022/08/03 14:16:31;;;;;;;2.70;2.30;;;;;;;;;;5023274;28;20036;-61
2022/08/03 14:18:56;;;;;;;3.20;2.10;;;;;;;;;;5026208;28;20040;-61
2022/08/03 14:21:22;;;;;;;5.32;2.03;;;;;;;;;;5028985;28;20075;-61
2022/08/03 14:23:47;;;;;;;2.30;2.10;;;;;;;;;;5025628;28;20395;-61
2022/08/03 14:26:13;;;;;;;3.60;2.33;;;;;;;;;;5024150;28;20059;-61
2022/08/03 14:28:39;;;;;;;4.35;2.33;;;;;;;;;;5026037;28;20112;-61
2022/08/03 14:31:05;;;;;;;3.60;2.05;;;;;;;;;;5025504;28;20119;-61
2022/08/03 14:33:30;;;;;;;3.88;2.13;;;;;;;;;;5025684;28;20117;-61
2022/08/03 14:35:56;;;;;;;3.08;2.20;;;;;;;;;;5021706;28;20018;-61
2022/08/03 14:38:21;;;;;;;3.85;2.33;;;;;;;;;;5022820;28;20123;-61
2022/08/03 14:40:48;;;;;;;3.90;2.28;;;;;;;;;;5027735;28;20032;-61
2022/08/03 14:43:16;;;;;;;4.85;2.45;;;;;;;;;;5025370;28;20072;-61
2022/08/03 14:45:42;;;;;;;3.45;2.40;;;;;;;;;;5023898;28;20025;-64
2022/08/03 14:48:07;;;;;;;3.28;2.00;;;;;;;;;;5023391;28;20113;-61
2022/08/03 14:50:33;;;;;;;2.63;2.17;;;;;;;;;;5025140;28;20034;-61
2022/08/03 14:52:58;;;;;;;3.92;2.17;;;;;;;;;;5024976;28;20534;-62
2022/08/03 14:55:24;;;;;;;4.10;2.25;;;;;;;;;;5025875;28;20026;-62
2022/08/03 14:57:49;;;;;;;3.25;1.95;;;;;;;;;;5025006;28;20096;-61
2022/08/03 15:00:15;;;;;;;2.67;2.30;;;;;;;;;;5033849;28;20052;-62